Josephine Anne — WDD9858 — position and weather

sailwx.info

Track history (hours):
 
Tides and Currents Weather Stations Pressure Air Temp Water Temp Dewpoint Dewpoint Depression Visibility Wind Speed Wind Dir Waves Ship Positions

Josephine Anne

Owner: E.N. Bisso & Son, Inc., Metairie, LA. More information available from US FCC via Universal Licensing System and Coast Guard Vessel Documentation Center.

Last reported at 2015-Jan-30 01:23 UTC. Time now 2015-Feb-01 11:47 UTC.
Position N 29°55' W 089°57'.

Length 29 m; draft 4.3 m.

Type: Tug. MMSI: 367317270.

Date/timePositionNaut miles runAvg speedWind from/ knotsBaromVisibWave heightAir tempDewpointWater temp
2015-Jan-30 01:23N 29°55' W 089°57'6 0.1
2015-Jan-28 02:28N 29°55' W 090°04'2 1.8
2015-Jan-28 01:33N 29°57' W 090°04'1 0.0
2015-Jan-26 20:18N 29°58' W 090°02'0 0.0
2015-Jan-26 19:32N 29°58' W 090°02'1 0.7
2015-Jan-26 18:33N 29°57' W 090°02'3 1.8
2015-Jan-26 17:10N 29°56' W 089°59'3 0.1
2015-Jan-24 21:31N 29°58' W 090°02'0 0.0
2015-Jan-24 20:09N 29°58' W 090°02'0 0.0
2015-Jan-24 19:32N 29°58' W 090°02'0 0.0
2015-Jan-24 18:29N 29°58' W 090°02'0 0.0
2015-Jan-24 15:23N 29°58' W 090°02'0 0.0
2015-Jan-24 13:32N 29°58' W 090°02'6 2.8
2015-Jan-24 11:22N 29°53' W 089°58'3 3.9
2015-Jan-24 10:30N 29°56' W 089°59'  
2015-Jan-20 08:29N 29°55' W 090°08'4 4.2
2015-Jan-20 07:29N 29°57' W 090°04'0 0.0
2015-Jan-20 06:21N 29°57' W 090°04'0 0.0
2015-Jan-20 05:30N 29°57' W 090°04'0 0.0
2015-Jan-20 04:33N 29°57' W 090°04'0 0.0
2015-Jan-20 03:30N 29°57' W 090°04'0 0.0
2015-Jan-20 02:32N 29°57' W 090°04'  
Track history (hours):
 
Tides and Currents Weather Stations Pressure Air Temp Water Temp Dewpoint Dewpoint Depression Visibility Wind Speed Wind Dir Waves Ship Positions

Josephine Anne

Owner: E.N. Bisso & Son, Inc., Metairie, LA. More information available from US FCC via Universal Licensing System and Coast Guard Vessel Documentation Center.

Last reported at 2015-Jan-30 01:23 UTC. Time now 2015-Feb-01 11:47 UTC.
Position N 29°55' W 089°57'.

Length 29 m; draft 4.3 m.

Type: Tug. MMSI: 367317270.

Date/timePositionNaut miles runAvg speedWind from/ knotsBaromVisibWave heightAir tempDewpointWater temp
2015-Jan-30 01:23N 29°55' W 089°57'6 0.1
2015-Jan-28 02:28N 29°55' W 090°04'2 1.8
2015-Jan-28 01:33N 29°57' W 090°04'1 0.0
2015-Jan-26 20:18N 29°58' W 090°02'0 0.0
2015-Jan-26 19:32N 29°58' W 090°02'1 0.7
2015-Jan-26 18:33N 29°57' W 090°02'3 1.8
2015-Jan-26 17:10N 29°56' W 089°59'3 0.1
2015-Jan-24 21:31N 29°58' W 090°02'0 0.0
2015-Jan-24 20:09N 29°58' W 090°02'0 0.0
2015-Jan-24 19:32N 29°58' W 090°02'0 0.0
2015-Jan-24 18:29N 29°58' W 090°02'0 0.0
2015-Jan-24 15:23N 29°58' W 090°02'0 0.0
2015-Jan-24 13:32N 29°58' W 090°02'6 2.8
2015-Jan-24 11:22N 29°53' W 089°58'3 3.9
2015-Jan-24 10:30N 29°56' W 089°59'  
2015-Jan-20 08:29N 29°55' W 090°08'4 4.2
2015-Jan-20 07:29N 29°57' W 090°04'0 0.0
2015-Jan-20 06:21N 29°57' W 090°04'0 0.0
2015-Jan-20 05:30N 29°57' W 090°04'0 0.0
2015-Jan-20 04:33N 29°57' W 090°04'0 0.0
2015-Jan-20 03:30N 29°57' W 090°04'0 0.0
2015-Jan-20 02:32N 29°57' W 090°04'  

Dump ship's entire track history